Time;durP1;ratioP1;P1;durP2;ratioP2;P2;SDS_P1;SDS_P2;PMS_P1;PMS_P2;Temp;Humidity;BMP_temperature;BMP_pressure;BME280_temperature;BME280_humidity;BME280_pressure;Samples;Min_cycle;Max_cycle;Signal;HPM_P1;HPM_P2
2022/05/18 00:00:36;;;;;;;11.13;8.93;;;;;;;;;;5034893;28;20123;-86
2022/05/18 00:03:06;;;;;;;11.65;8.63;;;;;;;;;;5034740;28;20126;-87
2022/05/18 00:05:35;;;;;;;9.48;8.40;;;;;;;;;;5052395;28;20075;-87
2022/05/18 00:08:02;;;;;;;11.15;8.85;;;;;;;;;;5034785;28;20045;-86
2022/05/18 00:10:30;;;;;;;10.68;8.38;;;;;;;;;;5035002;28;20136;-86
2022/05/18 00:12:57;;;;;;;11.18;7.70;;;;;;;;;;5034764;28;20049;-86
2022/05/18 00:15:25;;;;;;;9.30;8.43;;;;;;;;;;5034617;28;20088;-87
2022/05/18 00:17:53;;;;;;;9.02;8.27;;;;;;;;;;5034470;28;20081;-87
2022/05/18 00:20:21;;;;;;;9.15;8.25;;;;;;;;;;5034692;28;20130;-87
2022/05/18 00:22:49;;;;;;;9.88;8.73;;;;;;;;;;5052245;28;20494;-86
2022/05/18 00:25:17;;;;;;;13.48;9.88;;;;;;;;;;5035592;28;20080;-86
2022/05/18 00:27:45;;;;;;;13.18;9.77;;;;;;;;;;5038572;28;20103;-87
2022/05/18 00:30:14;;;;;;;9.68;8.80;;;;;;;;;;5038355;28;20045;-87
2022/05/18 00:32:41;;;;;;;8.52;7.72;;;;;;;;;;5038726;28;20155;-86
2022/05/18 00:35:09;;;;;;;10.88;8.20;;;;;;;;;;5038016;28;20100;-87
2022/05/18 00:37:36;;;;;;;11.85;8.70;;;;;;;;;;5038083;28;20052;-87
2022/05/18 00:40:05;;;;;;;11.55;9.10;;;;;;;;;;5038309;28;20087;-87
2022/05/18 00:42:33;;;;;;;12.20;10.15;;;;;;;;;;5055963;28;20059;-87
2022/05/18 00:45:00;;;;;;;10.60;9.60;;;;;;;;;;5038249;28;20049;-87
2022/05/18 00:47:27;;;;;;;10.48;8.73;;;;;;;;;;5055881;28;20088;-87
2022/05/18 00:50:03;;;;;;;10.70;8.57;;;;;;;;;;5055707;28;20047;-87
2022/05/18 00:52:34;;;;;;;9.85;7.82;;;;;;;;;;5038303;28;20135;-87
2022/05/18 00:55:02;;;;;;;9.30;8.40;;;;;;;;;;5055801;28;20413;-86
2022/05/18 00:57:31;;;;;;;8.63;7.93;;;;;;;;;;5038319;28;20148;-87
2022/05/18 01:00:03;;;;;;;9.98;8.98;;;;;;;;;;5037987;28;20578;-86
2022/05/18 01:02:33;;;;;;;10.02;9.00;;;;;;;;;;5038269;28;20055;-87
2022/05/18 01:05:01;;;;;;;10.45;8.45;;;;;;;;;;5038267;28;20087;-87
2022/05/18 01:07:30;;;;;;;12.93;9.02;;;;;;;;;;5037878;28;20140;-86
2022/05/18 01:09:58;;;;;;;9.82;8.40;;;;;;;;;;5037943;28;20083;-86
2022/05/18 01:12:25;;;;;;;9.98;8.38;;;;;;;;;;5037982;28;20460;-86
2022/05/18 01:14:55;;;;;;;10.48;9.43;;;;;;;;;;5037933;28;20135;-86
2022/05/18 01:17:28;;;;;;;10.43;8.60;;;;;;;;;;5038035;28;20045;-86
2022/05/18 01:19:57;;;;;;;9.55;8.65;;;;;;;;;;5037901;28;20136;-86
2022/05/18 01:22:30;;;;;;;8.48;7.75;;;;;;;;;;5037691;28;20537;-86
2022/05/18 01:25:24;;;;;;;9.77;8.68;;;;;;;;;;5037803;28;20053;-87
2022/05/18 01:27:52;;;;;;;8.80;8.00;;;;;;;;;;5037901;28;20478;-86
2022/05/18 01:30:19;;;;;;;8.32;7.57;;;;;;;;;;5037512;28;20079;-86
2022/05/18 01:32:48;;;;;;;9.15;7.18;;;;;;;;;;5037506;28;20390;-86
2022/05/18 01:35:18;;;;;;;8.82;7.10;;;;;;;;;;5037875;28;20049;-86
2022/05/18 01:37:46;;;;;;;8.13;7.32;;;;;;;;;;5037874;28;20137;-86
2022/05/18 01:40:32;;;;;;;11.48;8.00;;;;;;;;;;5038571;28;20049;-86
2022/05/18 01:43:14;;;;;;;8.45;7.63;;;;;;;;;;5066352;28;20060;-86
2022/05/18 01:45:42;;;;;;;8.82;7.70;;;;;;;;;;5076581;28;20049;-86
2022/05/18 01:48:10;;;;;;;9.90;7.65;;;;;;;;;;5053493;28;20087;-87
2022/05/18 01:50:38;;;;;;;8.25;7.55;;;;;;;;;;5054508;28;20056;-87
2022/05/18 01:53:05;;;;;;;8.50;7.70;;;;;;;;;;5037586;28;20441;-87
2022/05/18 01:55:33;;;;;;;11.52;8.07;;;;;;;;;;5036977;28;20136;-87
2022/05/18 01:58:00;;;;;;;11.45;8.25;;;;;;;;;;5037218;28;20136;-86
2022/05/18 02:00:28;;;;;;;9.50;8.60;;;;;;;;;;5037638;28;20063;-87
2022/05/18 02:02:56;;;;;;;9.25;7.95;;;;;;;;;;5050528;28;20049;-87
2022/05/18 02:05:23;;;;;;;9.48;8.57;;;;;;;;;;5039299;28;20072;-87
2022/05/18 02:07:51;;;;;;;11.77;8.45;;;;;;;;;;5036707;28;20544;-86
2022/05/18 02:10:19;;;;;;;7.80;7.00;;;;;;;;;;5036871;28;20076;-86
2022/05/18 02:12:46;;;;;;;8.15;7.35;;;;;;;;;;5036963;28;20490;-86
2022/05/18 02:15:13;;;;;;;7.78;7.07;;;;;;;;;;5036653;28;20045;-86
2022/05/18 02:17:41;;;;;;;8.85;7.95;;;;;;;;;;5036484;28;20052;-86
2022/05/18 02:20:08;;;;;;;8.23;7.43;;;;;;;;;;5036498;28;20056;-86
2022/05/18 02:22:36;;;;;;;9.02;8.18;;;;;;;;;;5036737;28;20107;-86
2022/05/18 02:25:03;;;;;;;12.38;7.72;;;;;;;;;;5037035;28;20053;-86
2022/05/18 02:27:30;;;;;;;8.77;8.02;;;;;;;;;;5036706;28;20079;-86
2022/05/18 02:29:58;;;;;;;8.13;7.32;;;;;;;;;;5036554;28;20057;-86
2022/05/18 02:32:26;;;;;;;8.43;7.53;;;;;;;;;;5036329;28;20495;-86
2022/05/18 02:34:53;;;;;;;9.27;8.10;;;;;;;;;;5036407;28;20095;-86
2022/05/18 02:37:20;;;;;;;8.40;7.47;;;;;;;;;;5037301;28;20079;-86
2022/05/18 02:39:47;;;;;;;8.52;7.68;;;;;;;;;;5036715;28;20067;-86
2022/05/18 02:42:14;;;;;;;8.20;7.40;;;;;;;;;;5037102;28;20417;-86
2022/05/18 02:44:41;;;;;;;9.57;8.68;;;;;;;;;;5036449;28;20458;-86
2022/05/18 02:47:09;;;;;;;10.48;8.07;;;;;;;;;;5036741;28;20073;-86
2022/05/18 02:49:36;;;;;;;12.43;8.88;;;;;;;;;;5036491;28;20505;-86
2022/05/18 02:52:03;;;;;;;15.55;10.50;;;;;;;;;;5037267;28;20128;-86
2022/05/18 02:57:19;;;;;;;11.57;9.07;;;;;;;;;;5054384;28;20492;-86
2022/05/18 02:59:46;;;;;;;9.27;8.32;;;;;;;;;;5036883;28;20083;-86
2022/05/18 03:02:14;;;;;;;10.07;9.18;;;;;;;;;;5036845;28;20454;-86
2022/05/18 03:04:41;;;;;;;13.00;8.50;;;;;;;;;;5036816;28;20152;-85
2022/05/18 03:07:08;;;;;;;10.57;9.52;;;;;;;;;;5053984;28;20049;-86
2022/05/18 03:09:36;;;;;;;10.57;9.57;;;;;;;;;;5053900;28;20088;-86
2022/05/18 03:12:04;;;;;;;13.15;10.10;;;;;;;;;;5036559;28;20052;-86
2022/05/18 03:14:31;;;;;;;12.60;9.50;;;;;;;;;;5036711;28;20084;-86
2022/05/18 03:16:59;;;;;;;9.60;8.70;;;;;;;;;;5041278;28;20056;-87
2022/05/18 03:19:26;;;;;;;10.52;9.30;;;;;;;;;;5037516;28;20092;-87
2022/05/18 03:24:39;;;;;;;9.45;8.60;;;;;;;;;;5054805;28;20049;-85
2022/05/18 03:27:06;;;;;;;9.48;8.18;;;;;;;;;;5036781;28;20558;-85
2022/05/18 03:29:34;;;;;;;8.98;7.93;;;;;;;;;;5037117;28;20064;-85
2022/05/18 03:32:01;;;;;;;9.50;8.57;;;;;;;;;;5037195;28;20076;-84
2022/05/18 03:34:28;;;;;;;9.68;8.88;;;;;;;;;;5038012;28;20059;-85
2022/05/18 03:36:55;;;;;;;10.63;9.20;;;;;;;;;;5037761;28;20075;-84
2022/05/18 03:39:22;;;;;;;8.80;8.05;;;;;;;;;;5037365;28;20473;-85
2022/05/18 03:41:50;;;;;;;11.77;9.20;;;;;;;;;;5040407;28;20045;-85
2022/05/18 03:44:19;;;;;;;10.90;8.95;;;;;;;;;;5045419;28;20103;-87
2022/05/18 03:46:46;;;;;;;9.65;8.68;;;;;;;;;;5043667;28;20053;-85
2022/05/18 03:49:13;;;;;;;9.40;8.50;;;;;;;;;;5036345;28;20053;-85
2022/05/18 03:51:40;;;;;;;8.88;7.95;;;;;;;;;;5035998;28;20503;-84
2022/05/18 03:54:07;;;;;;;14.65;12.98;;;;;;;;;;5036149;28;20080;-85
2022/05/18 03:56:35;;;;;;;15.57;12.75;;;;;;;;;;5036073;28;20069;-85
2022/05/18 03:59:02;;;;;;;12.05;10.85;;;;;;;;;;5036738;28;20052;-85
2022/05/18 04:01:29;;;;;;;11.23;9.93;;;;;;;;;;5041595;28;20052;-87
2022/05/18 04:03:57;;;;;;;9.50;8.68;;;;;;;;;;5040895;28;20049;-85
2022/05/18 04:06:24;;;;;;;14.15;11.73;;;;;;;;;;5040425;28;20052;-85
2022/05/18 04:08:52;;;;;;;15.38;12.45;;;;;;;;;;5040024;28;20110;-85
2022/05/18 04:11:19;;;;;;;18.27;12.70;;;;;;;;;;5040807;28;20091;-85
2022/05/18 04:13:47;;;;;;;10.02;9.13;;;;;;;;;;5040509;28;20042;-85
2022/05/18 04:16:14;;;;;;;11.55;9.32;;;;;;;;;;5041525;28;20053;-85
2022/05/18 04:18:41;;;;;;;10.30;8.95;;;;;;;;;;5040815;28;20464;-85
2022/05/18 04:21:08;;;;;;;11.25;9.52;;;;;;;;;;5039849;28;20139;-85
2022/05/18 04:23:39;;;;;;;11.52;9.48;;;;;;;;;;5040892;28;20061;-87
2022/05/18 04:26:07;;;;;;;12.20;10.98;;;;;;;;;;5059726;28;20083;-87
2022/05/18 04:28:35;;;;;;;11.85;10.65;;;;;;;;;;5067000;28;20137;-87
2022/05/18 04:31:03;;;;;;;13.00;11.70;;;;;;;;;;5040034;28;20087;-84
2022/05/18 04:33:31;;;;;;;11.93;10.52;;;;;;;;;;5039951;28;20045;-87
2022/05/18 04:36:02;;;;;;;11.93;9.38;;;;;;;;;;5040783;28;20084;-87
2022/05/18 04:38:31;;;;;;;9.05;8.13;;;;;;;;;;5058411;28;20049;-87
2022/05/18 04:40:58;;;;;;;7.55;6.75;;;;;;;;;;5041757;28;20084;-87
2022/05/18 04:43:25;;;;;;;11.52;8.15;;;;;;;;;;5044719;28;20083;-87
2022/05/18 04:45:55;;;;;;;10.52;7.97;;;;;;;;;;5044267;28;20056;-87
2022/05/18 04:48:24;;;;;;;7.22;6.38;;;;;;;;;;5056936;28;20049;-87
2022/05/18 04:50:51;;;;;;;14.90;7.25;;;;;;;;;;5038222;28;20075;-86
2022/05/18 04:53:19;;;;;;;9.85;7.10;;;;;;;;;;5038805;28;20053;-87
2022/05/18 04:55:47;;;;;;;9.27;7.10;;;;;;;;;;5037750;28;20502;-87
2022/05/18 04:58:14;;;;;;;9.73;6.78;;;;;;;;;;5055863;28;20556;-87
2022/05/18 05:00:42;;;;;;;15.27;8.63;;;;;;;;;;5038062;28;20592;-87
2022/05/18 05:03:09;;;;;;;6.45;5.85;;;;;;;;;;5055847;28;20116;-88
2022/05/18 05:05:37;;;;;;;7.95;6.13;;;;;;;;;;5039608;28;20421;-87
2022/05/18 05:08:04;;;;;;;8.15;6.03;;;;;;;;;;5038391;28;20076;-87
2022/05/18 05:10:31;;;;;;;6.50;5.95;;;;;;;;;;5037790;28;20049;-87
2022/05/18 05:12:58;;;;;;;7.85;7.10;;;;;;;;;;5038393;28;20077;-87
2022/05/18 05:15:26;;;;;;;9.85;7.32;;;;;;;;;;5038546;28;20080;-87
2022/05/18 05:17:53;;;;;;;13.00;7.20;;;;;;;;;;5038104;28;20053;-87
2022/05/18 05:20:20;;;;;;;8.45;7.25;;;;;;;;;;5037862;28;20048;-88
2022/05/18 05:22:47;;;;;;;18.15;8.45;;;;;;;;;;5037865;28;20136;-87
2022/05/18 05:25:14;;;;;;;9.95;7.57;;;;;;;;;;5037793;28;20144;-87
2022/05/18 05:27:42;;;;;;;10.02;7.47;;;;;;;;;;5037762;28;20414;-88
2022/05/18 05:30:11;;;;;;;7.82;6.97;;;;;;;;;;5037703;28;20395;-87
2022/05/18 05:32:38;;;;;;;7.90;6.60;;;;;;;;;;5037528;28;20407;-87
2022/05/18 05:35:06;;;;;;;9.18;6.60;;;;;;;;;;5037346;28;20525;-87
2022/05/18 05:37:33;;;;;;;8.63;6.03;;;;;;;;;;5037439;28;20076;-87
2022/05/18 05:40:01;;;;;;;10.00;6.80;;;;;;;;;;5037159;28;20059;-87
2022/05/18 05:42:28;;;;;;;9.82;6.60;;;;;;;;;;5037669;28;20088;-87
2022/05/18 05:44:55;;;;;;;9.07;6.60;;;;;;;;;;5054950;28;20049;-87
2022/05/18 05:47:22;;;;;;;7.00;6.30;;;;;;;;;;5037430;28;20076;-87
2022/05/18 05:49:49;;;;;;;17.40;7.25;;;;;;;;;;5037407;28;20073;-87
2022/05/18 05:52:17;;;;;;;9.27;6.40;;;;;;;;;;5037637;28;20143;-87
2022/05/18 05:54:44;;;;;;;13.32;6.53;;;;;;;;;;5038689;28;20045;-87
2022/05/18 05:57:11;;;;;;;7.18;5.95;;;;;;;;;;5038437;28;20147;-87
2022/05/18 05:59:39;;;;;;;7.70;5.72;;;;;;;;;;5038397;28;20091;-87
2022/05/18 06:02:08;;;;;;;8.02;5.95;;;;;;;;;;5038455;28;20773;-87
2022/05/18 06:04:37;;;;;;;6.72;5.65;;;;;;;;;;5056307;28;20048;-87
2022/05/18 06:07:04;;;;;;;6.65;6.05;;;;;;;;;;5038030;28;20102;-87
2022/05/18 06:09:32;;;;;;;6.07;5.50;;;;;;;;;;5038782;28;20087;-87
2022/05/18 06:11:59;;;;;;;5.95;5.10;;;;;;;;;;5055937;28;20052;-87
2022/05/18 06:14:26;;;;;;;5.72;5.05;;;;;;;;;;5038139;28;20095;-87
2022/05/18 06:16:54;;;;;;;7.07;5.32;;;;;;;;;;5038005;28;20055;-87
2022/05/18 06:19:21;;;;;;;5.57;4.13;;;;;;;;;;5039050;28;20129;-87
2022/05/18 06:21:50;;;;;;;8.38;4.60;;;;;;;;;;5039347;28;20044;-87
2022/05/18 06:24:18;;;;;;;5.32;4.78;;;;;;;;;;5040532;28;20106;-88
2022/05/18 06:26:46;;;;;;;6.47;4.60;;;;;;;;;;5042602;28;20113;-88
2022/05/18 06:29:13;;;;;;;4.95;4.40;;;;;;;;;;5040083;28;20083;-87
2022/05/18 06:31:40;;;;;;;9.02;4.15;;;;;;;;;;5039316;28;20123;-88
2022/05/18 06:34:08;;;;;;;4.20;3.80;;;;;;;;;;5038557;28;20052;-87
2022/05/18 06:36:35;;;;;;;6.18;4.20;;;;;;;;;;5038289;28;20069;-87
2022/05/18 06:39:04;;;;;;;6.50;3.88;;;;;;;;;;5038207;28;20064;-88
2022/05/18 06:41:33;;;;;;;4.03;3.75;;;;;;;;;;5055191;28;20178;-88
2022/05/18 06:44:02;;;;;;;3.97;3.67;;;;;;;;;;5038393;28;20044;-88
2022/05/18 06:46:31;;;;;;;5.15;4.63;;;;;;;;;;5054204;28;20049;-88
2022/05/18 06:49:03;;;;;;;4.68;4.28;;;;;;;;;;5042345;28;20080;-88
2022/05/18 06:51:36;;;;;;;4.68;4.20;;;;;;;;;;5052755;28;20055;-88
2022/05/18 06:54:03;;;;;;;7.25;4.78;;;;;;;;;;5035368;28;20132;-88
2022/05/18 06:56:33;;;;;;;6.35;4.07;;;;;;;;;;5034770;28;20152;-88
2022/05/18 06:59:01;;;;;;;12.63;4.32;;;;;;;;;;5035876;28;20045;-88
2022/05/18 07:01:28;;;;;;;3.60;3.40;;;;;;;;;;5036265;28;20053;-88
2022/05/18 07:03:56;;;;;;;5.80;2.60;;;;;;;;;;5036861;28;20617;-88
2022/05/18 07:06:30;;;;;;;3.75;2.53;;;;;;;;;;5041543;28;20056;-85
2022/05/18 07:08:57;;;;;;;6.95;2.92;;;;;;;;;;5040561;28;20087;-85
2022/05/18 07:11:28;;;;;;;3.75;2.60;;;;;;;;;;5038453;28;20055;-85
2022/05/18 07:13:58;;;;;;;2.72;2.53;;;;;;;;;;5038390;28;20052;-85
2022/05/18 07:16:26;;;;;;;3.03;2.33;;;;;;;;;;5038783;28;20060;-85
2022/05/18 07:18:54;;;;;;;4.38;2.75;;;;;;;;;;5054709;28;20041;-86
2022/05/18 07:21:25;;;;;;;2.60;2.40;;;;;;;;;;5055148;28;20560;-85
2022/05/18 07:23:53;;;;;;;2.28;2.10;;;;;;;;;;5036579;28;20122;-85
2022/05/18 07:26:21;;;;;;;6.53;3.72;;;;;;;;;;5035384;28;20087;-86
2022/05/18 07:28:49;;;;;;;5.38;2.88;;;;;;;;;;5036068;28;20453;-85
2022/05/18 07:31:19;;;;;;;4.57;2.90;;;;;;;;;;5037841;28;20504;-82
2022/05/18 07:34:06;;;;;;;2.70;2.50;;;;;;;;;;5045810;28;20047;-84
2022/05/18 07:36:33;;;;;;;14.30;3.40;;;;;;;;;;5060680;28;20064;-84
2022/05/18 07:39:00;;;;;;;9.55;3.42;;;;;;;;;;5058853;28;20049;-85
2022/05/18 07:41:27;;;;;;;4.15;2.60;;;;;;;;;;5057887;28;20462;-85
2022/05/18 07:43:55;;;;;;;8.40;3.08;;;;;;;;;;5063987;28;20068;-85
2022/05/18 07:46:22;;;;;;;6.10;2.88;;;;;;;;;;5084674;28;20078;-83
2022/05/18 07:48:49;;;;;;;15.65;4.15;;;;;;;;;;5060855;28;20048;-81
2022/05/18 07:51:17;;;;;;;3.92;2.92;;;;;;;;;;5055349;28;20207;-87
2022/05/18 07:53:44;;;;;;;7.70;3.45;;;;;;;;;;5055311;28;20049;-86
2022/05/18 07:56:12;;;;;;;4.53;2.65;;;;;;;;;;5056410;28;20132;-85
2022/05/18 07:58:39;;;;;;;4.57;2.47;;;;;;;;;;5057938;28;20049;-87
2022/05/18 08:01:09;;;;;;;15.27;3.95;;;;;;;;;;5055817;28;20436;-87
2022/05/18 08:03:38;;;;;;;13.45;2.67;;;;;;;;;;5055080;28;20102;-85
2022/05/18 08:06:05;;;;;;;7.93;2.67;;;;;;;;;;5054869;28;20128;-87
2022/05/18 08:08:33;;;;;;;6.40;2.08;;;;;;;;;;5055102;28;20119;-88
2022/05/18 08:16:34;;;;;;;17.75;3.42;;;;;;;;;;5072850;28;20126;-87
2022/05/18 08:19:02;;;;;;;6.93;2.13;;;;;;;;;;5055685;28;20056;-83
2022/05/18 08:21:29;;;;;;;3.55;1.85;;;;;;;;;;5074419;28;20075;-84
2022/05/18 08:23:57;;;;;;;4.10;1.70;;;;;;;;;;5055011;28;20053;-85
2022/05/18 08:26:24;;;;;;;2.85;1.85;;;;;;;;;;5055178;28;20562;-84
2022/05/18 08:28:52;;;;;;;3.50;2.20;;;;;;;;;;5055531;28;20049;-86
2022/05/18 08:31:23;;;;;;;2.20;1.75;;;;;;;;;;5055249;28;20076;-85
2022/05/18 08:33:55;;;;;;;5.15;2.00;;;;;;;;;;5055191;28;20052;-85
2022/05/18 08:36:25;;;;;;;4.32;1.88;;;;;;;;;;5073297;28;20123;-84
2022/05/18 08:38:54;;;;;;;3.28;1.45;;;;;;;;;;5055535;28;20049;-85
2022/05/18 08:41:25;;;;;;;3.13;1.83;;;;;;;;;;5074468;28;20052;-84
2022/05/18 08:43:54;;;;;;;5.38;1.60;;;;;;;;;;5055183;28;20555;-83
2022/05/18 08:46:24;;;;;;;1.45;1.35;;;;;;;;;;5056194;28;20418;-85
2022/05/18 08:49:04;;;;;;;1.58;1.30;;;;;;;;;;5058727;28;20095;-85
2022/05/18 08:51:38;;;;;;;1.70;1.50;;;;;;;;;;5058702;28;20044;-85
2022/05/18 08:54:05;;;;;;;4.13;1.60;;;;;;;;;;5077745;28;20075;-84
2022/05/18 08:56:33;;;;;;;1.90;1.13;;;;;;;;;;5058724;28;20102;-86
2022/05/18 08:59:02;;;;;;;2.33;1.20;;;;;;;;;;5058550;28;20486;-85
2022/05/18 09:01:36;;;;;;;3.20;1.48;;;;;;;;;;5059019;28;20049;-85
2022/05/18 09:04:09;;;;;;;1.67;1.40;;;;;;;;;;5064080;28;20052;-83
2022/05/18 09:06:54;;;;;;;8.95;1.60;;;;;;;;;;5075041;28;20109;-85
2022/05/18 09:12:13;;;;;;;3.03;1.60;;;;;;;;;;5075661;28;20076;-86
2022/05/18 09:14:43;;;;;;;5.65;1.60;;;;;;;;;;5059090;28;20098;-85
2022/05/18 09:17:13;;;;;;;1.73;1.35;;;;;;;;;;5059106;28;20071;-84
2022/05/18 09:20:07;;;;;;;1.52;1.30;;;;;;;;;;5076209;28;20144;-85
2022/05/18 09:22:44;;;;;;;3.38;1.50;;;;;;;;;;5022681;28;20131;-86
2022/05/18 09:25:24;;;;;;;1.73;1.40;;;;;;;;;;5057976;28;20041;-83
2022/05/18 09:27:56;;;;;;;2.08;1.40;;;;;;;;;;5058382;28;20521;-84
2022/05/18 09:30:23;;;;;;;2.80;1.27;;;;;;;;;;5059497;28;20048;-83
2022/05/18 09:32:58;;;;;;;1.75;1.27;;;;;;;;;;5059354;28;20127;-85
2022/05/18 09:35:40;;;;;;;1.30;1.20;;;;;;;;;;5054119;28;20041;-84
2022/05/18 09:38:08;;;;;;;2.53;1.23;;;;;;;;;;5054808;28;20136;-86
2022/05/18 09:40:46;;;;;;;2.33;1.15;;;;;;;;;;5054497;28;20049;-85
2022/05/18 09:43:21;;;;;;;1.70;1.15;;;;;;;;;;5054449;28;20473;-85
2022/05/18 09:45:50;;;;;;;2.83;1.35;;;;;;;;;;5055615;28;20564;-84
2022/05/18 09:48:32;;;;;;;3.55;1.27;;;;;;;;;;5058403;28;20052;-85
2022/05/18 09:50:59;;;;;;;2.40;1.38;;;;;;;;;;5057807;28;20072;-83
2022/05/18 09:53:27;;;;;;;2.47;1.17;;;;;;;;;;5058479;28;20083;-86
2022/05/18 09:55:54;;;;;;;3.20;1.20;;;;;;;;;;5057146;28;20429;-87
2022/05/18 09:58:33;;;;;;;1.65;1.30;;;;;;;;;;5057245;28;20071;-84
2022/05/18 10:09:44;;;;;;;2.05;1.25;;;;;;;;;;5075545;28;20064;-84
2022/05/18 10:12:23;;;;;;;3.97;1.27;;;;;;;;;;5075712;28;20049;-83
2022/05/18 10:14:51;;;;;;;1.63;1.20;;;;;;;;;;5057624;28;20053;-84
2022/05/18 10:17:20;;;;;;;2.50;1.00;;;;;;;;;;5057248;28;20490;-85
2022/05/18 10:19:59;;;;;;;2.55;1.02;;;;;;;;;;5056725;28;20055;-83
2022/05/18 10:22:29;;;;;;;2.78;1.10;;;;;;;;;;5057125;28;20044;-84
2022/05/18 10:24:59;;;;;;;1.35;1.13;;;;;;;;;;5074364;28;20064;-85
2022/05/18 10:27:28;;;;;;;1.20;1.10;;;;;;;;;;5076092;28;20040;-85
2022/05/18 10:30:05;;;;;;;1.73;0.88;;;;;;;;;;5057905;28;20048;-86
2022/05/18 10:32:33;;;;;;;1.73;1.20;;;;;;;;;;5057326;28;20486;-86
2022/05/18 10:35:01;;;;;;;2.10;1.00;;;;;;;;;;5057776;28;20083;-87
2022/05/18 10:37:32;;;;;;;2.28;0.80;;;;;;;;;;5066544;28;20052;-87
2022/05/18 10:40:19;;;;;;;2.28;1.00;;;;;;;;;;5065222;28;20052;-86
2022/05/18 10:42:48;;;;;;;1.75;1.10;;;;;;;;;;5056165;28;20127;-86
2022/05/18 10:45:28;;;;;;;2.35;1.00;;;;;;;;;;5056191;28;20056;-86
2022/05/18 10:47:57;;;;;;;2.38;1.10;;;;;;;;;;5056855;28;20455;-85
2022/05/18 10:50:29;;;;;;;2.10;1.13;;;;;;;;;;5057081;28;20083;-87
2022/05/18 10:53:00;;;;;;;1.70;1.08;;;;;;;;;;5075966;28;20048;-85
2022/05/18 10:55:31;;;;;;;4.10;1.60;;;;;;;;;;5057573;28;20045;-87
2022/05/18 10:58:04;;;;;;;7.88;2.13;;;;;;;;;;5057730;28;20547;-85
2022/05/18 11:00:40;;;;;;;3.33;1.27;;;;;;;;;;5059811;28;20102;-85
2022/05/18 11:03:21;;;;;;;3.55;1.42;;;;;;;;;;5055721;28;20573;-86
2022/05/18 11:05:54;;;;;;;2.65;1.48;;;;;;;;;;5055736;28;20132;-86
2022/05/18 11:08:23;;;;;;;3.42;1.30;;;;;;;;;;5055870;28;20410;-87
2022/05/18 11:10:54;;;;;;;1.95;0.90;;;;;;;;;;5073162;28;20098;-86
2022/05/18 11:13:41;;;;;;;1.98;1.20;;;;;;;;;;5055981;28;20127;-84
2022/05/18 11:16:18;;;;;;;5.60;1.52;;;;;;;;;;5056914;28;20044;-85
2022/05/18 11:18:50;;;;;;;5.85;1.60;;;;;;;;;;5056742;28;20059;-86
2022/05/18 11:21:24;;;;;;;4.40;1.45;;;;;;;;;;5057707;28;20138;-86
2022/05/18 11:26:33;;;;;;;1.42;1.33;;;;;;;;;;5078240;28;20357;-86
2022/05/18 11:29:23;;;;;;;2.47;1.27;;;;;;;;;;5058175;28;20044;-87
2022/05/18 11:31:50;;;;;;;4.40;1.55;;;;;;;;;;5075954;28;20079;-86
2022/05/18 11:34:36;;;;;;;5.75;1.90;;;;;;;;;;5055154;28;20053;-87
2022/05/18 11:37:15;;;;;;;20.77;2.85;;;;;;;;;;5055755;28;20044;-85
2022/05/18 11:39:59;;;;;;;4.20;1.20;;;;;;;;;;5057369;28;20064;-86
2022/05/18 11:42:36;;;;;;;2.63;1.48;;;;;;;;;;5055655;28;20048;-86
2022/05/18 11:45:24;;;;;;;2.20;1.50;;;;;;;;;;5055150;28;20048;-86
2022/05/18 11:48:02;;;;;;;1.80;1.27;;;;;;;;;;5042261;28;20049;-86
2022/05/18 11:50:48;;;;;;;1.55;1.15;;;;;;;;;;5074651;28;20109;-85
2022/05/18 11:53:18;;;;;;;2.70;1.25;;;;;;;;;;5074087;28;20044;-85
2022/05/18 11:55:45;;;;;;;2.15;1.40;;;;;;;;;;5056250;28;20052;-85
2022/05/18 11:58:46;;;;;;;3.55;1.67;;;;;;;;;;5056076;28;20048;-83
2022/05/18 12:01:19;;;;;;;3.60;1.45;;;;;;;;;;5055785;28;20052;-85
2022/05/18 12:04:07;;;;;;;3.58;1.52;;;;;;;;;;5057469;28;20056;-84
2022/05/18 12:06:34;;;;;;;2.05;1.35;;;;;;;;;;5056831;28;20083;-85
2022/05/18 12:09:05;;;;;;;4.93;1.88;;;;;;;;;;5058176;28;20521;-84
2022/05/18 12:11:51;;;;;;;4.72;1.50;;;;;;;;;;5056589;28;20489;-84
2022/05/18 12:14:24;;;;;;;2.70;1.63;;;;;;;;;;5054668;28;20140;-85
2022/05/18 12:16:51;;;;;;;;;;;;;;;;;;5073101;28;20049;-84
2022/05/18 12:19:21;;;;;;;1.90;1.42;;;;;;;;;;5073181;28;19924;-85
2022/05/18 12:21:50;;;;;;;2.08;1.23;;;;;;;;;;5056751;28;20048;-85
2022/05/18 12:24:18;;;;;;;3.88;1.40;;;;;;;;;;5058921;28;20076;-85
2022/05/18 12:26:45;;;;;;;1.48;1.38;;;;;;;;;;5058712;28;20080;-85
2022/05/18 12:29:16;;;;;;;1.10;1.10;;;;;;;;;;5078159;28;20445;-84
2022/05/18 12:31:43;;;;;;;4.82;2.13;;;;;;;;;;5061672;28;20425;-84
2022/05/18 12:34:14;;;;;;;1.67;1.23;;;;;;;;;;5078188;28;20045;-84
2022/05/18 12:36:46;;;;;;;3.65;1.63;;;;;;;;;;5060791;28;20156;-84
2022/05/18 12:39:17;;;;;;;3.78;1.25;;;;;;;;;;5080030;28;20481;-83
2022/05/18 12:41:46;;;;;;;4.72;1.50;;;;;;;;;;5064060;28;20055;-83
2022/05/18 12:44:22;;;;;;;2.75;1.58;;;;;;;;;;5060257;28;20044;-84
2022/05/18 12:46:54;;;;;;;5.88;1.45;;;;;;;;;;5062853;28;20076;-84
2022/05/18 12:49:35;;;;;;;4.80;1.45;;;;;;;;;;5077420;28;20572;-84
2022/05/18 12:52:05;;;;;;;3.47;1.33;;;;;;;;;;5076765;28;20131;-84
2022/05/18 12:54:38;;;;;;;4.20;1.40;;;;;;;;;;5061790;28;20105;-84
2022/05/18 12:57:05;;;;;;;;;;;;;;;;;;5063685;28;20079;-84
2022/05/18 12:59:59;;;;;;;6.95;1.65;;;;;;;;;;5061152;28;19966;-84
2022/05/18 13:02:37;;;;;;;4.80;2.03;;;;;;;;;;5049033;28;20048;-84
2022/05/18 13:05:06;;;;;;;2.25;1.52;;;;;;;;;;5049600;28;20056;-84
2022/05/18 13:07:36;;;;;;;3.92;1.60;;;;;;;;;;5055962;28;20083;-83
2022/05/18 13:10:06;;;;;;;2.35;1.52;;;;;;;;;;5055053;28;20102;-84
2022/05/18 13:12:39;;;;;;;1.45;1.33;;;;;;;;;;5054483;28;20049;-84
2022/05/18 13:15:21;;;;;;;3.05;1.20;;;;;;;;;;5056059;28;20055;-83
2022/05/18 13:18:04;;;;;;;2.28;1.30;;;;;;;;;;5056576;28;20059;-85
2022/05/18 13:20:31;;;;;;;2.92;1.52;;;;;;;;;;5058739;28;20048;-85
2022/05/18 13:23:17;;;;;;;3.75;1.67;;;;;;;;;;5058517;28;20136;-84
2022/05/18 13:25:47;;;;;;;2.15;1.48;;;;;;;;;;5062985;28;20088;-83
2022/05/18 13:28:15;;;;;;;2.15;1.60;;;;;;;;;;5090565;28;20044;-85
2022/05/18 13:30:42;;;;;;;5.07;1.58;;;;;;;;;;5063273;28;20048;-83
2022/05/18 13:33:38;;;;;;;4.38;1.60;;;;;;;;;;5063533;28;20054;-83
2022/05/18 13:36:05;;;;;;;2.20;1.42;;;;;;;;;;5061731;28;20083;-83
2022/05/18 13:38:33;;;;;;;2.85;1.77;;;;;;;;;;5085691;28;20052;-84
2022/05/18 13:41:02;;;;;;;2.42;1.42;;;;;;;;;;5065893;28;20080;-83
2022/05/18 13:43:31;;;;;;;3.80;1.60;;;;;;;;;;5078181;28;20048;-83
2022/05/18 13:46:04;;;;;;;1.35;1.27;;;;;;;;;;5061446;28;20083;-83
2022/05/18 13:48:31;;;;;;;2.22;1.55;;;;;;;;;;5058083;28;20127;-84
2022/05/18 13:51:18;;;;;;;7.28;1.65;;;;;;;;;;5076272;28;20117;-83
2022/05/18 13:53:51;;;;;;;4.72;1.58;;;;;;;;;;5059705;28;20048;-84
2022/05/18 13:56:19;;;;;;;;;;;;;;;;;;5058392;28;20159;-84
2022/05/18 13:58:47;;;;;;;5.20;1.45;;;;;;;;;;5057007;28;19974;-86
2022/05/18 14:01:19;;;;;;;2.40;1.52;;;;;;;;;;5057238;28;20056;-87
2022/05/18 14:03:51;;;;;;;3.10;1.60;;;;;;;;;;5057482;28;20041;-87
2022/05/18 14:06:22;;;;;;;2.47;1.40;;;;;;;;;;5057551;28;20055;-86
2022/05/18 14:09:05;;;;;;;6.85;1.50;;;;;;;;;;5059982;28;20051;-83
2022/05/18 14:11:33;;;;;;;1.42;1.30;;;;;;;;;;5057291;28;20048;-84
2022/05/18 14:14:01;;;;;;;2.42;1.52;;;;;;;;;;5056980;28;20083;-85
2022/05/18 14:16:57;;;;;;;7.38;1.65;;;;;;;;;;5074229;28;20048;-84
2022/05/18 14:19:57;;;;;;;6.03;1.45;;;;;;;;;;5061886;28;20048;-83
2022/05/18 14:22:27;;;;;;;1.90;1.23;;;;;;;;;;5056664;28;20513;-84
2022/05/18 14:24:59;;;;;;;2.75;1.42;;;;;;;;;;5057291;28;20079;-85
2022/05/18 14:27:26;;;;;;;3.63;1.63;;;;;;;;;;5057478;28;20094;-87
2022/05/18 14:29:56;;;;;;;3.95;1.60;;;;;;;;;;5057827;28;20068;-84
2022/05/18 14:32:27;;;;;;;2.92;1.58;;;;;;;;;;5056546;28;20470;-84
2022/05/18 14:34:57;;;;;;;2.67;1.33;;;;;;;;;;5055946;28;20052;-85
2022/05/18 14:37:27;;;;;;;3.83;1.52;;;;;;;;;;5056328;28;20395;-85
2022/05/18 14:39:56;;;;;;;2.83;1.63;;;;;;;;;;5056369;28;20075;-85
2022/05/18 14:42:25;;;;;;;3.63;1.52;;;;;;;;;;5056205;28;20132;-86
2022/05/18 14:44:59;;;;;;;5.47;1.73;;;;;;;;;;5055534;28;20049;-85
2022/05/18 14:47:29;;;;;;;2.42;1.40;;;;;;;;;;5056160;28;20048;-85
2022/05/18 14:50:11;;;;;;;2.35;1.33;;;;;;;;;;5056392;28;20044;-85
2022/05/18 14:52:42;;;;;;;5.38;1.60;;;;;;;;;;5057455;28;20182;-84
2022/05/18 14:55:11;;;;;;;2.28;1.40;;;;;;;;;;5057756;28;20105;-84
2022/05/18 14:57:39;;;;;;;6.65;2.33;;;;;;;;;;5061891;28;20083;-84
2022/05/18 15:00:14;;;;;;;3.78;2.00;;;;;;;;;;5061128;28;20087;-84
2022/05/18 15:02:43;;;;;;;2.17;1.95;;;;;;;;;;5075879;28;20044;-84
2022/05/18 15:05:14;;;;;;;2.80;1.63;;;;;;;;;;5057992;28;20044;-85
2022/05/18 15:07:44;;;;;;;5.20;1.40;;;;;;;;;;5056017;28;20117;-85
2022/05/18 15:10:18;;;;;;;2.00;1.38;;;;;;;;;;5056516;28;20102;-85
2022/05/18 15:12:48;;;;;;;2.30;1.35;;;;;;;;;;5056900;28;20555;-85
2022/05/18 15:15:15;;;;;;;3.03;1.30;;;;;;;;;;5056514;28;20105;-85
2022/05/18 15:17:42;;;;;;;7.90;1.95;;;;;;;;;;5074687;28;20114;-85
2022/05/18 15:20:17;;;;;;;5.15;1.20;;;;;;;;;;5074043;28;20106;-85
2022/05/18 15:22:55;;;;;;;7.80;1.83;;;;;;;;;;5057034;28;20086;-85
2022/05/18 15:25:35;;;;;;;1.70;1.40;;;;;;;;;;5073346;28;20047;-85